Time;durP1;ratioP1;P1;durP2;ratioP2;P2;SDS_P1;SDS_P2;PMS_P1;PMS_P2;Temp;Humidity;BMP_temperature;BMP_pressure;BME280_temperature;BME280_humidity;BME280_pressure;Samples;Min_cycle;Max_cycle;Signal;HPM_P1;HPM_P2
2023/01/22 06:43:50;;;;;;;;;;;;;;;;;;5453497;23;19926;-89
2023/01/22 06:46:15;;;;;;;;;;;;;;;;;;4977555;28;20273;-88
2023/01/22 06:48:42;;;;;;;;;;;;;;;;;;4958988;28;19914;-87
2023/01/22 06:51:08;;;;;;;;;;;;;;;;;;4976844;28;19957;-88
2023/01/22 06:53:33;;;;;;;;;;;;;;;;;;4959150;28;19961;-88
2023/01/22 06:55:59;;;;;;;;;;;;;;;;;;4976447;28;19926;-88
2023/01/22 06:58:24;;;;;;;;;;;;;;;;;;4958960;28;19982;-88
2023/01/22 07:00:49;;;;;;;;;;;;;;;;;;4959305;28;19910;-89
2023/01/22 07:03:14;;;;;;;;;;;;;;;;;;4958997;28;19914;-87
2023/01/22 07:05:40;;;;;;;;;;;;;;;;;;4976238;28;20408;-88
2023/01/22 07:08:05;;;;;;;;;;;;;;;;;;4958914;28;19914;-85
2023/01/22 07:10:31;;;;;;;;;;;;;;;;;;4976498;28;19968;-87
2023/01/22 07:12:57;;;;;;;;;;;;;;;;;;4976636;28;19914;-87
2023/01/22 18:11:58;;;;;;;;;;;;;;;;;;5178194;23;19930;-85
2023/01/22 18:14:27;;;;;;;;;;;;;;;;;;4938384;29;20428;-81
2023/01/22 18:16:52;;;;;;;;;;;;;;;;;;4921323;29;19915;-86
2023/01/22 18:19:18;;;;;;;;;;;;;;;;;;4913766;29;19918;-83
2023/01/22 18:21:43;;;;;;;;;;;;;;;;;;4919557;29;19941;-83
2023/01/22 18:24:09;;;;;;;;;;;;;;;;;;4902474;29;19961;-83
2023/01/22 18:26:36;;;;;;;;;;;;;;;;;;4919515;29;19921;-82
2023/01/22 18:29:01;;;;;;;;;;;;;;;;;;4907151;29;19916;-82
2023/01/22 18:31:27;;;;;;;;;;;;;;;;;;4900693;29;19977;-83
2023/01/22 18:33:54;;;;;;;;;;;;;;;;;;4900628;29;19915;-83
2023/01/22 18:36:21;;;;;;;;;;;;;;;;;;4900642;29;19916;-84
2023/01/22 18:38:46;;;;;;;;;;;;;;;;;;4900481;29;19923;-82
2023/01/22 18:41:13;;;;;;;;;;;;;;;;;;4900368;29;19915;-86
2023/01/22 18:43:40;;;;;;;;;;;;;;;;;;4900459;29;19919;-83
2023/01/22 18:46:06;;;;;;;;;;;;;;;;;;4912590;29;20289;-84
2023/01/22 18:48:32;;;;;;;;;;;;;;;;;;4918988;29;20426;-84
2023/01/22 18:50:57;;;;;;;;;;;;;;;;;;4919284;29;19914;-84
2023/01/22 18:53:26;;;;;;;;;;;;;;;;;;4902824;29;20318;-84
2023/01/22 18:55:51;;;;;;;;;;;;;;;;;;4902794;29;19915;-83
2023/01/22 18:58:34;;;;;;;;;;;;;;;;;;4919433;29;20014;-84
2023/01/22 19:01:10;;;;;;;;;;;;;;;;;;4919813;29;19915;-84
2023/01/22 19:03:36;;;;;;;;;;;;;;;;;;4919427;29;19919;-83
2023/01/22 19:06:12;;;;;;;;;;;;;;;;;;4919003;29;20393;-84
2023/01/22 19:08:51;;;;;;;;;;;;;;;;;;4902538;29;19915;-84
2023/01/22 19:11:17;;;;;;;;;;;;;;;;;;4919311;29;20315;-84
2023/01/22 19:13:46;;;;;;;;;;;;;;;;;;4933832;29;19925;-83
2023/01/22 19:16:13;;;;;;;;;;;;;;;;;;4936814;29;20038;-86
2023/01/22 19:18:41;;;;;;;;;;;;;;;;;;4932234;29;19922;-85
2023/01/22 19:21:10;;;;;;;;;;;;;;;;;;4919139;29;19919;-84
2023/01/22 19:23:36;;;;;;;;;;;;;;;;;;4917219;29;19915;-86
2023/01/22 19:26:04;;;;;;;;;;;;;;;;;;4919093;29;19915;-89
2023/01/22 19:28:29;;;;;;;;;;;;;;;;;;4918127;29;19910;-88
2023/01/22 19:30:55;;;;;;;;;;;;;;;;;;4919166;29;19942;-85
2023/01/22 19:33:26;;;;;;;;;;;;;;;;;;4918024;29;20357;-86
2023/01/22 19:35:52;;;;;;;;;;;;;;;;;;4919156;29;19919;-83
2023/01/22 19:38:18;;;;;;;;;;;;;;;;;;4918026;29;19946;-85
2023/01/22 19:40:43;;;;;;;;;;;;;;;;;;4918897;29;19915;-85
2023/01/22 19:43:09;;;;;;;;;;;;;;;;;;4918737;29;20290;-87
2023/01/22 19:45:35;;;;;;;;;;;;;;;;;;4918713;29;20014;-86
2023/01/22 19:48:00;;;;;;;;;;;;;;;;;;4917648;29;19922;-89
2023/01/22 19:50:26;;;;;;;;;;;;;;;;;;4917977;29;20010;-85
2023/01/22 19:52:51;;;;;;;;;;;;;;;;;;4917927;29;19935;-86
2023/01/22 19:55:18;;;;;;;;;;;;;;;;;;4917996;29;19922;-86
